NZ-0006 weather

CLOSED Arkwrights Airstrip/Dunsandel (Private)
Canterbury Region, New Zealand

Public forecast

Using degrees Celsius for public forecast. Weather courtesy of forecast.io.

METAR (pilot weather report)

Closest report is Christchurch International Airport, 21.3 nm (39.5 km) ENE. Retrieved 2019/06/25 12:30 UTC (23 minutes ago):

NZCH 251230Z AUTO 26005KT 9999 NCD 02/02 Q1030 TEMPO 3000 BR

TAF (pilot weather forecast)

Closest forecast is Christchurch International Airport, 21.3 nm (39.5 km) ENE. Retrieved 2019/06/25 12:10 UTC (43 minutes ago):

TAF NZCH 251108Z 2512/2612 26005KT 9999 FEW003 TEMPO 2512/2515 3000 BR PROB30 2515/2522 BKN003 FM260100 04010KT CAVOK BECMG 2607/2609 VRB02KT